Time;durP1;ratioP1;P1;durP2;ratioP2;P2;SDS_P1;SDS_P2;PMS_P1;PMS_P2;Temp;Humidity;BMP_temperature;BMP_pressure;BME280_temperature;BME280_humidity;BME280_pressure;Samples;Min_cycle;Max_cycle;Signal;HPM_P1;HPM_P2
2021/12/28 11:45:35;;;;;;;63.75;33.42;;;;;;;;;;5055505;28;20032;-63
2021/12/28 11:48:01;;;;;;;57.05;34.90;;;;;;;;;;5055199;28;20020;-63
2021/12/28 11:50:26;;;;;;;34.75;24.55;;;;;;;;;;5047425;28;20035;-64
2021/12/28 11:52:52;;;;;;;51.55;35.22;;;;;;;;;;5050881;28;20025;-64
2021/12/28 11:55:18;;;;;;;46.50;25.33;;;;;;;;;;5050742;28;20059;-63
2021/12/28 11:57:53;;;;;;;36.25;22.33;;;;;;;;;;5048820;28;20060;-64
2021/12/28 12:00:20;;;;;;;33.75;23.65;;;;;;;;;;5049335;28;20033;-63
2021/12/28 12:02:49;;;;;;;30.88;21.15;;;;;;;;;;5049491;28;20182;-64
2021/12/28 12:05:20;;;;;;;30.02;21.67;;;;;;;;;;5049377;28;20499;-64
2021/12/28 12:07:46;;;;;;;32.33;20.15;;;;;;;;;;5049956;28;20090;-64
2021/12/28 12:10:13;;;;;;;41.45;23.75;;;;;;;;;;5049912;28;20024;-63
2021/12/28 12:12:42;;;;;;;39.72;24.13;;;;;;;;;;5048784;28;20406;-63
2021/12/28 12:15:09;;;;;;;49.03;25.00;;;;;;;;;;5049899;28;20037;-63
2021/12/28 12:17:43;;;;;;;74.72;35.35;;;;;;;;;;5049476;28;20040;-63
2021/12/28 12:20:21;;;;;;;45.03;23.15;;;;;;;;;;5049414;28;20037;-63
2021/12/28 12:22:51;;;;;;;29.17;20.73;;;;;;;;;;5050156;28;20172;-63
2021/12/28 12:25:21;;;;;;;33.35;19.70;;;;;;;;;;5049887;28;20109;-63
2021/12/28 12:28:00;;;;;;;50.70;29.42;;;;;;;;;;5049941;28;20035;-63
2021/12/28 12:30:28;;;;;;;33.58;21.77;;;;;;;;;;5049440;28;20036;-63
2021/12/28 12:33:05;;;;;;;33.50;23.42;;;;;;;;;;5050097;28;20127;-63
2021/12/28 12:35:31;;;;;;;48.88;27.45;;;;;;;;;;5050097;28;20032;-63
2021/12/28 12:37:57;;;;;;;37.50;23.30;;;;;;;;;;5049583;28;20060;-63
2021/12/28 12:40:43;;;;;;;62.60;29.27;;;;;;;;;;5049310;28;20057;-63
2021/12/28 12:43:09;;;;;;;75.72;35.72;;;;;;;;;;5049111;28;20055;-63
2021/12/28 12:45:50;;;;;;;74.10;33.22;;;;;;;;;;5049826;28;20111;-63
2021/12/28 12:48:15;;;;;;;;;;;;;;;;;;5050000;28;20052;-62
2021/12/28 12:50:40;;;;;;;55.40;27.50;;;;;;;;;;5049233;28;20362;-62
2021/12/28 12:53:26;;;;;;;64.93;29.67;;;;;;;;;;5049631;28;20374;-63
2021/12/28 12:56:10;;;;;;;62.30;30.52;;;;;;;;;;5047710;28;20043;-63
2021/12/28 12:58:44;;;;;;;49.75;26.15;;;;;;;;;;5048948;28;20140;-62
2021/12/28 13:01:27;;;;;;;42.05;25.08;;;;;;;;;;5049251;28;20498;-62
2021/12/28 13:03:54;;;;;;;46.67;28.67;;;;;;;;;;5048572;28;20477;-62
2021/12/28 13:06:38;;;;;;;34.80;22.48;;;;;;;;;;5049223;28;20025;-62
2021/12/28 13:09:07;;;;;;;39.92;23.88;;;;;;;;;;5048723;28;20041;-63
2021/12/28 13:11:33;;;;;;;35.55;22.38;;;;;;;;;;5049125;28;20032;-62
2021/12/28 13:13:59;;;;;;;41.03;23.52;;;;;;;;;;5047512;28;20040;-63
2021/12/28 13:16:24;;;;;;;33.45;21.70;;;;;;;;;;5049133;28;20118;-63
2021/12/28 13:18:49;;;;;;;47.67;31.60;;;;;;;;;;5048758;28;20423;-62
2021/12/28 13:21:19;;;;;;;38.53;26.92;;;;;;;;;;5048786;28;20075;-62
2021/12/28 13:24:03;;;;;;;38.28;30.50;;;;;;;;;;5048893;28;20040;-62
2021/12/28 13:26:28;;;;;;;60.08;50.50;;;;;;;;;;5047420;28;20621;-62
2021/12/28 13:29:00;;;;;;;95.55;84.00;;;;;;;;;;5048552;28;20067;-63
2021/12/28 13:31:26;;;;;;;86.03;69.38;;;;;;;;;;5048515;28;20029;-63
2021/12/28 13:33:57;;;;;;;77.55;53.35;;;;;;;;;;5048800;28;20031;-62
2021/12/28 13:36:23;;;;;;;68.78;47.38;;;;;;;;;;5048842;28;20039;-62
2021/12/28 13:38:49;;;;;;;84.38;61.50;;;;;;;;;;5048538;28;20025;-62
2021/12/28 13:41:14;;;;;;;56.03;39.30;;;;;;;;;;5048295;28;20450;-62
2021/12/28 13:43:39;;;;;;;156.32;117.47;;;;;;;;;;5048730;28;20493;-63
2021/12/28 13:46:06;;;;;;;200.15;143.15;;;;;;;;;;5048548;28;20566;-62
2021/12/28 13:48:34;;;;;;;79.78;52.10;;;;;;;;;;5048789;28;20013;-62
2021/12/28 13:51:08;;;;;;;102.35;72.95;;;;;;;;;;5048232;28;20037;-62
2021/12/28 13:53:48;;;;;;;64.25;36.35;;;;;;;;;;5048655;28;20040;-62
2021/12/28 13:56:20;;;;;;;129.27;81.70;;;;;;;;;;5048675;28;20039;-62
2021/12/28 13:58:48;;;;;;;94.32;60.92;;;;;;;;;;5049733;28;20295;-63
2021/12/28 14:01:18;;;;;;;74.00;54.17;;;;;;;;;;5049830;28;20048;-62
2021/12/28 14:03:57;;;;;;;53.38;39.55;;;;;;;;;;5050093;28;20040;-63
2021/12/28 14:06:23;;;;;;;40.20;27.80;;;;;;;;;;5049224;28;20025;-63
2021/12/28 14:08:48;;;;;;;44.72;29.63;;;;;;;;;;5048452;28;20364;-62
2021/12/28 14:11:27;;;;;;;41.80;28.33;;;;;;;;;;5048034;28;20064;-62
2021/12/28 14:13:53;;;;;;;46.72;28.42;;;;;;;;;;5048780;28;20068;-62
2021/12/28 14:16:18;;;;;;;34.63;20.42;;;;;;;;;;5052521;28;20063;-62
2021/12/28 14:18:48;;;;;;;49.55;29.83;;;;;;;;;;5052226;28;20033;-62
2021/12/28 14:21:13;;;;;;;71.17;39.97;;;;;;;;;;5052260;28;20107;-62
2021/12/28 14:23:39;;;;;;;69.82;41.13;;;;;;;;;;5052546;28;20518;-62
2021/12/28 14:26:11;;;;;;;56.78;33.05;;;;;;;;;;5052141;28;20040;-63
2021/12/28 14:28:40;;;;;;;50.05;28.00;;;;;;;;;;5052279;28;20399;-63
2021/12/28 14:31:20;;;;;;;39.20;23.42;;;;;;;;;;5051825;28;20029;-63
2021/12/28 14:33:48;;;;;;;32.55;24.15;;;;;;;;;;5052371;28;20483;-62
2021/12/28 14:36:13;;;;;;;42.55;26.80;;;;;;;;;;5051903;28;20029;-63
2021/12/28 14:38:39;;;;;;;45.58;27.52;;;;;;;;;;5051981;28;20043;-63
2021/12/28 14:41:25;;;;;;;40.80;27.38;;;;;;;;;;5051766;28;20017;-63
2021/12/28 14:44:03;;;;;;;42.60;28.80;;;;;;;;;;5051593;28;20052;-63
2021/12/28 14:46:30;;;;;;;60.90;38.53;;;;;;;;;;5051832;28;20099;-63
2021/12/28 14:48:56;;;;;;;54.05;31.73;;;;;;;;;;5051684;28;20029;-63
2021/12/28 14:51:28;;;;;;;50.55;31.30;;;;;;;;;;5051423;28;20036;-63
2021/12/28 14:54:11;;;;;;;52.78;30.92;;;;;;;;;;5051715;28;20072;-63
2021/12/28 14:56:37;;;;;;;61.60;34.55;;;;;;;;;;5051592;28;20131;-63
2021/12/28 14:59:09;;;;;;;43.50;29.40;;;;;;;;;;5051120;28;20057;-63
2021/12/28 15:01:34;;;;;;;45.00;30.70;;;;;;;;;;5051817;28;20473;-63
2021/12/28 15:04:00;;;;;;;46.65;29.85;;;;;;;;;;5051733;28;20104;-63
2021/12/28 15:06:25;;;;;;;43.75;28.38;;;;;;;;;;5049967;28;20040;-63
2021/12/28 15:08:51;;;;;;;34.10;23.38;;;;;;;;;;5051422;28;20032;-63
2021/12/28 15:11:16;;;;;;;42.95;27.58;;;;;;;;;;5051167;28;20060;-63
2021/12/28 15:13:43;;;;;;;43.45;28.55;;;;;;;;;;5051533;28;20565;-63
2021/12/28 15:16:09;;;;;;;49.10;32.50;;;;;;;;;;5051469;28;20044;-63
2021/12/28 15:18:35;;;;;;;39.83;30.08;;;;;;;;;;5051189;28;20043;-63
2021/12/28 15:21:02;;;;;;;44.85;28.33;;;;;;;;;;5050934;28;20040;-63
2021/12/28 15:23:28;;;;;;;44.30;30.40;;;;;;;;;;5051123;28;20394;-63
2021/12/28 15:25:53;;;;;;;44.97;29.00;;;;;;;;;;5050595;28;20037;-63
2021/12/28 15:28:19;;;;;;;49.08;32.42;;;;;;;;;;5051380;28;20458;-63
2021/12/28 15:30:44;;;;;;;49.60;31.52;;;;;;;;;;5050897;28;20450;-63
2021/12/28 15:33:10;;;;;;;49.03;31.85;;;;;;;;;;5051061;28;20063;-63
2021/12/28 15:35:40;;;;;;;47.33;30.98;;;;;;;;;;5050930;28;20392;-63
2021/12/28 15:38:06;;;;;;;118.15;81.65;;;;;;;;;;5050871;28;20083;-64
2021/12/28 15:40:36;;;;;;;118.32;80.38;;;;;;;;;;5050600;28;20029;-64
2021/12/28 15:43:02;;;;;;;114.63;73.23;;;;;;;;;;5050840;28;20108;-64
2021/12/28 15:45:28;;;;;;;90.82;57.03;;;;;;;;;;5050756;28;20037;-63
2021/12/28 15:47:53;;;;;;;112.95;70.18;;;;;;;;;;5050884;28;20438;-63
2021/12/28 15:50:19;;;;;;;110.35;69.85;;;;;;;;;;5050568;28;20056;-63
2021/12/28 15:52:44;;;;;;;86.38;54.30;;;;;;;;;;5048925;28;20025;-64
2021/12/28 15:55:10;;;;;;;49.90;32.65;;;;;;;;;;5050537;28;20029;-63
2021/12/28 15:57:36;;;;;;;61.40;40.97;;;;;;;;;;5048695;28;20140;-64
2021/12/28 16:00:02;;;;;;;95.47;59.80;;;;;;;;;;5050279;28;20041;-63
2021/12/28 16:02:35;;;;;;;90.30;56.88;;;;;;;;;;5050387;28;20033;-63
2021/12/28 16:05:01;;;;;;;50.97;36.17;;;;;;;;;;5050612;28;20102;-63
2021/12/28 16:07:26;;;;;;;69.85;44.42;;;;;;;;;;5050328;28;20108;-63
2021/12/28 16:09:51;;;;;;;55.55;34.03;;;;;;;;;;5050259;28;20131;-63
2021/12/28 16:12:17;;;;;;;54.63;35.38;;;;;;;;;;5050319;28;20240;-63
2021/12/28 16:14:42;;;;;;;56.63;37.20;;;;;;;;;;5050379;28;20183;-63
2021/12/28 16:17:09;;;;;;;43.50;30.00;;;;;;;;;;5050279;28;20036;-63
2021/12/28 16:19:34;;;;;;;37.85;23.40;;;;;;;;;;5049398;28;20036;-63
2021/12/28 16:22:00;;;;;;;42.47;27.50;;;;;;;;;;5050096;28;20031;-63
2021/12/28 16:24:29;;;;;;;48.90;28.40;;;;;;;;;;5050420;28;20029;-63
2021/12/28 16:26:54;;;;;;;58.60;32.65;;;;;;;;;;5049898;28;20039;-63
2021/12/28 16:29:21;;;;;;;46.47;28.13;;;;;;;;;;5049794;28;20033;-63
2021/12/28 16:31:46;;;;;;;45.60;26.35;;;;;;;;;;5048192;28;20027;-63
2021/12/28 16:34:11;;;;;;;45.55;26.85;;;;;;;;;;5050073;28;20029;-64
2021/12/28 16:36:42;;;;;;;62.38;30.05;;;;;;;;;;5050003;28;20025;-64
2021/12/28 16:39:11;;;;;;;41.88;26.15;;;;;;;;;;5048162;28;20051;-64
2021/12/28 16:41:38;;;;;;;36.70;23.83;;;;;;;;;;5048524;28;20028;-64
2021/12/28 16:44:04;;;;;;;30.85;21.23;;;;;;;;;;5049767;28;20266;-64
2021/12/28 16:46:30;;;;;;;33.08;21.38;;;;;;;;;;5049944;28;20453;-64
2021/12/28 16:48:55;;;;;;;38.33;22.85;;;;;;;;;;5049225;28;20391;-64
2021/12/28 16:51:21;;;;;;;37.33;25.80;;;;;;;;;;5049260;28;20506;-64
2021/12/28 16:53:47;;;;;;;44.42;24.58;;;;;;;;;;5049400;28;20031;-64
2021/12/28 16:56:12;;;;;;;45.55;25.05;;;;;;;;;;5049290;28;20127;-64
2021/12/28 16:58:38;;;;;;;40.75;24.20;;;;;;;;;;5049130;28;20218;-64
2021/12/28 17:01:03;;;;;;;32.80;21.90;;;;;;;;;;5049242;28;20044;-64
2021/12/28 17:03:29;;;;;;;38.30;23.50;;;;;;;;;;5049432;28;20642;-64
2021/12/28 17:05:54;;;;;;;40.20;22.67;;;;;;;;;;5049538;28;20029;-63
2021/12/28 17:08:20;;;;;;;37.53;21.55;;;;;;;;;;5049217;28;20088;-64
2021/12/28 17:10:51;;;;;;;56.13;29.13;;;;;;;;;;5048794;28;20082;-64
2021/12/28 17:13:17;;;;;;;53.80;30.02;;;;;;;;;;5049260;28;20119;-64
2021/12/28 17:15:43;;;;;;;55.97;34.45;;;;;;;;;;5049189;28;20028;-64
2021/12/28 17:18:08;;;;;;;80.88;42.25;;;;;;;;;;5049113;28;20037;-64
2021/12/28 17:20:35;;;;;;;77.32;38.20;;;;;;;;;;5048930;28;20016;-64
2021/12/28 17:23:00;;;;;;;73.78;32.63;;;;;;;;;;5048993;28;20032;-64
2021/12/28 17:25:25;;;;;;;55.65;27.10;;;;;;;;;;5048991;28;20025;-64
2021/12/28 17:27:51;;;;;;;45.45;22.88;;;;;;;;;;5049086;28;20044;-63
2021/12/28 17:30:16;;;;;;;41.70;23.55;;;;;;;;;;5048666;28;20021;-64
2021/12/28 17:32:42;;;;;;;48.38;25.13;;;;;;;;;;5048532;28;20168;-64
2021/12/28 17:35:08;;;;;;;48.72;24.13;;;;;;;;;;5048878;28;20478;-64
2021/12/28 17:37:34;;;;;;;70.20;32.22;;;;;;;;;;5048836;28;20039;-64
2021/12/28 17:40:00;;;;;;;64.80;33.10;;;;;;;;;;5048479;28;20056;-64
2021/12/28 17:42:26;;;;;;;61.58;30.15;;;;;;;;;;5048867;28;20422;-64
2021/12/28 17:44:55;;;;;;;66.28;34.70;;;;;;;;;;5046664;28;20029;-64
2021/12/28 17:47:22;;;;;;;77.43;38.30;;;;;;;;;;5048579;28;20025;-64
2021/12/28 17:49:47;;;;;;;133.88;69.28;;;;;;;;;;5048163;28;20028;-63
2021/12/28 17:52:13;;;;;;;83.25;42.40;;;;;;;;;;5048355;28;20043;-64
2021/12/28 17:54:38;;;;;;;67.57;35.50;;;;;;;;;;5048569;28;20057;-64
2021/12/28 17:57:03;;;;;;;54.28;30.92;;;;;;;;;;5048436;28;20041;-64
2021/12/28 17:59:30;;;;;;;46.03;23.77;;;;;;;;;;5048034;28;20085;-61
2021/12/28 18:01:56;;;;;;;44.80;28.08;;;;;;;;;;5048514;28;20100;-63
2021/12/28 18:04:23;;;;;;;45.28;27.70;;;;;;;;;;5048451;28;20394;-63
2021/12/28 18:06:48;;;;;;;104.05;49.28;;;;;;;;;;5048559;28;20084;-64
2021/12/28 18:09:14;;;;;;;85.20;45.13;;;;;;;;;;5048233;28;20021;-64
2021/12/28 18:11:39;;;;;;;88.57;42.95;;;;;;;;;;5048252;28;20033;-64
2021/12/28 18:14:05;;;;;;;64.40;29.83;;;;;;;;;;5048185;28;20036;-63
2021/12/28 18:16:30;;;;;;;69.15;37.13;;;;;;;;;;5048352;28;20132;-64
2021/12/28 18:18:56;;;;;;;53.72;31.08;;;;;;;;;;5048194;28;20020;-64
2021/12/28 18:21:21;;;;;;;42.97;26.45;;;;;;;;;;5047834;28;20120;-64
2021/12/28 18:23:47;;;;;;;41.75;26.45;;;;;;;;;;5048567;28;20502;-64
2021/12/28 18:26:13;;;;;;;42.03;26.50;;;;;;;;;;5048257;28;20025;-64
2021/12/28 18:28:39;;;;;;;41.33;27.33;;;;;;;;;;5048293;28;20100;-64
2021/12/28 18:31:05;;;;;;;39.90;25.48;;;;;;;;;;5047954;28;20373;-64
2021/12/28 18:33:32;;;;;;;35.17;23.73;;;;;;;;;;5047930;28;20035;-64
2021/12/28 18:35:58;;;;;;;46.55;30.65;;;;;;;;;;5048510;28;20398;-64
2021/12/28 18:38:25;;;;;;;44.00;27.20;;;;;;;;;;5047756;28;20078;-64
2021/12/28 18:40:52;;;;;;;39.28;24.88;;;;;;;;;;5047997;28;20039;-64
2021/12/28 18:43:18;;;;;;;40.75;26.00;;;;;;;;;;5048191;28;20070;-64
2021/12/28 18:45:44;;;;;;;40.22;24.75;;;;;;;;;;5047933;28;20037;-64
2021/12/28 18:48:11;;;;;;;41.22;24.02;;;;;;;;;;5048159;28;20035;-63
2021/12/28 18:50:38;;;;;;;39.50;25.33;;;;;;;;;;5047991;28;20055;-64
2021/12/28 18:53:03;;;;;;;35.22;23.95;;;;;;;;;;5047876;28;20021;-64
2021/12/28 18:55:29;;;;;;;36.33;23.42;;;;;;;;;;5047937;28;20368;-63
2021/12/28 18:57:56;;;;;;;38.22;25.52;;;;;;;;;;5047697;28;20086;-64
2021/12/28 19:00:23;;;;;;;45.35;26.55;;;;;;;;;;5048204;28;20029;-63
2021/12/28 19:02:49;;;;;;;38.17;24.65;;;;;;;;;;5051476;28;20024;-63
2021/12/28 19:05:14;;;;;;;43.05;25.02;;;;;;;;;;5051937;28;20414;-63
2021/12/28 19:07:40;;;;;;;43.53;26.02;;;;;;;;;;5051817;28;20048;-63
2021/12/28 19:10:18;;;;;;;50.75;30.58;;;;;;;;;;5051596;28;20039;-63
2021/12/28 19:12:43;;;;;;;45.60;28.33;;;;;;;;;;5051421;28;20036;-63
2021/12/28 19:15:10;;;;;;;43.58;28.92;;;;;;;;;;5051521;28;20391;-63
2021/12/28 19:17:35;;;;;;;47.47;29.52;;;;;;;;;;5051293;28;20039;-63
2021/12/28 19:20:01;;;;;;;41.10;27.38;;;;;;;;;;5051377;28;20016;-63
2021/12/28 19:22:26;;;;;;;46.80;29.95;;;;;;;;;;5049664;28;20526;-63
2021/12/28 19:24:52;;;;;;;46.72;24.17;;;;;;;;;;5051278;28;20104;-63
2021/12/28 19:27:18;;;;;;;43.42;28.05;;;;;;;;;;5051257;28;20039;-63
2021/12/28 19:29:43;;;;;;;52.78;34.22;;;;;;;;;;5051004;28;20037;-63
2021/12/28 19:32:09;;;;;;;35.60;25.15;;;;;;;;;;5051050;28;20090;-63
2021/12/28 19:34:35;;;;;;;43.17;26.65;;;;;;;;;;5050386;28;20033;-63
2021/12/28 19:37:00;;;;;;;48.00;29.63;;;;;;;;;;5051141;28;20772;-63
2021/12/28 19:39:26;;;;;;;62.20;41.40;;;;;;;;;;5050753;28;20029;-63
2021/12/28 19:41:51;;;;;;;54.50;35.65;;;;;;;;;;5050835;28;20036;-63
2021/12/28 19:44:17;;;;;;;53.45;34.80;;;;;;;;;;5051028;28;20120;-63
2021/12/28 19:46:43;;;;;;;56.78;30.10;;;;;;;;;;5050607;28;20116;-63
2021/12/28 19:49:08;;;;;;;79.88;45.35;;;;;;;;;;5050668;28;20024;-63
2021/12/28 19:51:33;;;;;;;56.03;30.48;;;;;;;;;;5050559;28;20535;-63
2021/12/28 19:54:00;;;;;;;59.03;32.53;;;;;;;;;;5050699;28;20112;-64
2021/12/28 19:56:26;;;;;;;61.60;32.17;;;;;;;;;;5050771;28;20048;-64
2021/12/28 19:58:51;;;;;;;55.47;30.23;;;;;;;;;;5049731;28;20049;-64
2021/12/28 20:01:18;;;;;;;65.95;35.10;;;;;;;;;;5050475;28;20499;-64
2021/12/28 20:03:43;;;;;;;52.15;31.38;;;;;;;;;;5050291;28;20099;-64
2021/12/28 20:06:10;;;;;;;51.22;30.95;;;;;;;;;;5050295;28;20433;-64
2021/12/28 20:08:35;;;;;;;61.95;39.38;;;;;;;;;;5050332;28;20028;-64
2021/12/28 20:11:01;;;;;;;57.38;33.22;;;;;;;;;;5049900;28;20040;-63
2021/12/28 20:13:29;;;;;;;58.80;40.40;;;;;;;;;;5050157;28;20387;-63
2021/12/28 20:15:55;;;;;;;55.60;35.10;;;;;;;;;;5050323;28;20470;-63
2021/12/28 20:18:20;;;;;;;54.60;33.33;;;;;;;;;;5050206;28;20029;-63
2021/12/28 20:20:46;;;;;;;52.75;30.85;;;;;;;;;;5050014;28;20072;-63
2021/12/28 20:23:12;;;;;;;52.40;32.40;;;;;;;;;;5049864;28;20027;-63
2021/12/28 20:25:37;;;;;;;48.83;30.45;;;;;;;;;;5050113;28;20043;-63
2021/12/28 20:28:04;;;;;;;43.00;27.92;;;;;;;;;;5050220;28;20506;-63
2021/12/28 20:30:29;;;;;;;47.42;29.40;;;;;;;;;;5049802;28;20419;-64
2021/12/28 20:32:56;;;;;;;69.22;44.05;;;;;;;;;;5050332;28;20024;-63
2021/12/28 20:35:22;;;;;;;59.90;33.58;;;;;;;;;;5050204;28;20392;-63
2021/12/28 20:37:47;;;;;;;65.78;35.03;;;;;;;;;;5049966;28;20075;-63
2021/12/28 20:40:14;;;;;;;58.85;30.10;;;;;;;;;;5049598;28;20526;-63
2021/12/28 20:42:39;;;;;;;55.33;29.67;;;;;;;;;;5049802;28;20348;-63
2021/12/28 20:45:05;;;;;;;56.88;32.90;;;;;;;;;;5049631;28;20029;-63
